Time;durP1;ratioP1;P1;durP2;ratioP2;P2;SDS_P1;SDS_P2;PMS_P1;PMS_P2;Temp;Humidity;BMP_temperature;BMP_pressure;BME280_temperature;BME280_humidity;BME280_pressure;Samples;Min_cycle;Max_cycle;Signal;HPM_P1;HPM_P2
2022/10/21 00:00:31;;;;;;;25.25;12.95;;;;;;;13.13;100.00;100775.34;5014077;28;20087;-77
2022/10/21 00:02:57;;;;;;;23.63;12.38;;;;;;;13.14;100.00;100779.75;5031999;28;20128;-76
2022/10/21 00:05:22;;;;;;;21.38;12.07;;;;;;;13.14;100.00;100774.41;5046987;28;20408;-76
2022/10/21 00:07:48;;;;;;;23.58;12.45;;;;;;;13.13;100.00;100767.38;5030989;28;20116;-76
2022/10/21 00:10:13;;;;;;;21.63;12.55;;;;;;;13.11;100.00;100759.44;5038504;28;20052;-77
2022/10/21 00:12:39;;;;;;;19.05;10.88;;;;;;;13.08;100.00;100758.66;5031994;28;20018;-77
2022/10/21 00:15:08;;;;;;;18.88;10.88;;;;;;;13.07;100.00;100751.63;5042690;28;20315;-77
2022/10/21 00:17:36;;;;;;;18.88;12.68;;;;;;;13.08;100.00;100754.22;5031992;28;20370;-74
2022/10/21 00:20:04;;;;;;;21.95;11.45;;;;;;;13.06;100.00;100758.72;5031548;28;20041;-74
2022/10/21 00:22:30;;;;;;;23.85;11.93;;;;;;;13.07;100.00;100757.78;5046748;28;20349;-74
2022/10/21 00:24:56;;;;;;;27.00;12.38;;;;;;;13.07;100.00;100754.28;5030007;28;20090;-74
2022/10/21 00:27:21;;;;;;;21.20;12.13;;;;;;;13.05;100.00;100745.47;5023209;28;20063;-74
2022/10/21 00:29:47;;;;;;;20.95;11.82;;;;;;;13.02;100.00;100741.13;5047120;28;20124;-74
2022/10/21 00:32:12;;;;;;;15.95;11.65;;;;;;;12.97;100.00;100743.06;5027414;28;20062;-74
2022/10/21 00:34:38;;;;;;;16.15;10.35;;;;;;;12.94;100.00;100735.22;5026603;28;20100;-74
2022/10/21 00:37:03;;;;;;;28.15;11.45;;;;;;;12.96;100.00;100735.16;5024118;28;20049;-74
2022/10/21 00:39:29;;;;;;;18.00;10.45;;;;;;;12.91;100.00;100744.16;5032283;28;20494;-74
2022/10/21 00:41:54;;;;;;;20.75;12.48;;;;;;;12.93;100.00;100736.13;5013600;28;20034;-74
2022/10/21 00:44:20;;;;;;;20.52;11.57;;;;;;;12.90;100.00;100739.75;5013670;28;20047;-74
2022/10/21 00:47:02;;;;;;;24.17;12.00;;;;;;;12.94;100.00;100739.66;5029768;28;20037;-74
2022/10/21 00:49:38;;;;;;;26.60;12.10;;;;;;;12.92;100.00;100747.69;5031264;28;20052;-74
2022/10/21 00:52:08;;;;;;;24.02;12.25;;;;;;;12.93;100.00;100748.53;5031586;28;20087;-74
2022/10/21 00:54:34;;;;;;;18.67;11.75;;;;;;;12.94;100.00;100742.31;5013322;28;20029;-74
2022/10/21 00:57:00;;;;;;;21.73;12.63;;;;;;;12.95;100.00;100749.38;5030031;28;20051;-74
2022/10/21 00:59:30;;;;;;;19.95;12.68;;;;;;;12.93;100.00;100741.44;5031097;28;20044;-74
2022/10/21 01:01:56;;;;;;;28.80;12.73;;;;;;;12.94;100.00;100735.22;5031189;28;20021;-74
2022/10/21 01:04:22;;;;;;;19.15;11.70;;;;;;;12.92;100.00;100734.41;5013123;28;20884;-74
2022/10/21 01:06:48;;;;;;;20.73;11.10;;;;;;;12.93;100.00;100732.59;5030902;28;20111;-74
2022/10/21 01:09:15;;;;;;;17.10;11.40;;;;;;;12.91;100.00;100722.03;5033700;28;20184;-74
2022/10/21 01:11:43;;;;;;;58.05;13.10;;;;;;;12.89;100.00;100713.25;5034760;28;20083;-74
2022/10/21 01:14:22;;;;;;;16.85;11.55;;;;;;;12.90;100.00;100714.97;5033306;28;20029;-74
2022/10/21 01:17:05;;;;;;;19.40;11.20;;;;;;;12.89;100.00;100710.59;5037627;28;20136;-74
2022/10/21 01:20:05;;;;;;;17.98;10.73;;;;;;;12.86;100.00;100714.22;5018937;28;20052;-74
2022/10/21 01:22:54;;;;;;;18.60;12.10;;;;;;;12.85;100.00;100704.47;5029767;28;20037;-74
2022/10/21 01:25:32;;;;;;;15.18;10.07;;;;;;;12.78;100.00;100700.28;5018433;28;20407;-74
2022/10/21 01:28:13;;;;;;;23.35;10.98;;;;;;;12.74;100.00;100696.00;5036853;28;20484;-74
2022/10/21 01:30:43;;;;;;;21.98;11.35;;;;;;;12.75;100.00;100696.88;5028617;28;20041;-74
2022/10/21 01:33:35;;;;;;;16.90;11.05;;;;;;;12.74;100.00;100689.84;5031087;28;20021;-74
2022/10/21 01:36:27;;;;;;;14.95;10.15;;;;;;;12.70;100.00;100683.75;5030473;28;20103;-74
2022/10/21 01:39:28;;;;;;;16.05;9.07;;;;;;;12.62;100.00;100688.44;5021247;28;20040;-74
2022/10/21 01:42:02;;;;;;;17.23;10.55;;;;;;;12.55;100.00;100685.13;5015732;28;20049;-74
2022/10/21 01:44:49;;;;;;;16.02;9.90;;;;;;;12.51;100.00;100675.50;5029482;28;20068;-74
2022/10/21 01:47:31;;;;;;;13.60;10.05;;;;;;;12.47;100.00;100671.22;5033179;28;20388;-73
2022/10/21 01:50:20;;;;;;;18.90;10.50;;;;;;;12.43;100.00;100673.09;5029590;28;20121;-74
2022/10/21 01:52:48;;;;;;;24.42;10.15;;;;;;;12.38;100.00;100667.06;5028488;28;20059;-74
2022/10/21 01:55:18;;;;;;;19.75;10.40;;;;;;;12.36;100.00;100658.28;5029354;28;20022;-74
2022/10/21 01:57:51;;;;;;;14.82;10.18;;;;;;;12.32;100.00;100659.31;5030682;28;20531;-74
2022/10/21 02:00:17;;;;;;;15.50;10.05;;;;;;;12.31;100.00;100654.03;5030382;28;20061;-74
2022/10/21 02:02:47;;;;;;;16.75;10.68;;;;;;;12.22;100.00;100661.38;5026307;28;20060;-74
2022/10/21 02:05:17;;;;;;;19.85;10.30;;;;;;;12.21;100.00;100651.66;5023568;28;20045;-74
2022/10/21 02:07:43;;;;;;;18.67;9.70;;;;;;;12.20;100.00;100646.41;5030005;28;20033;-74
2022/10/21 02:10:09;;;;;;;19.65;11.15;;;;;;;12.14;100.00;100641.28;5021193;28;20063;-74
2022/10/21 02:12:36;;;;;;;17.23;9.82;;;;;;;12.09;100.00;100638.81;5030549;28;20036;-74
2022/10/21 02:15:05;;;;;;;16.38;10.55;;;;;;;12.08;100.00;100644.16;5030971;28;20109;-74
2022/10/21 02:17:34;;;;;;;26.15;10.88;;;;;;;12.03;100.00;100645.16;5031316;28;20104;-74
2022/10/21 02:20:05;;;;;;;16.70;10.68;;;;;;;11.96;100.00;100648.91;5033879;28;20030;-74
2022/10/21 02:22:31;;;;;;;20.05;11.23;;;;;;;11.99;100.00;100642.63;5034167;28;20033;-74
2022/10/21 02:25:02;;;;;;;17.63;10.30;;;;;;;11.93;100.00;100635.75;5049250;28;20021;-74
2022/10/21 02:27:27;;;;;;;21.52;10.00;;;;;;;11.88;100.00;100634.16;5028203;28;20049;-74
2022/10/21 02:29:58;;;;;;;14.15;9.38;;;;;;;11.85;100.00;100632.44;5032678;28;20033;-74
2022/10/21 02:32:41;;;;;;;15.35;9.98;;;;;;;11.82;100.00;100627.22;5049504;28;20053;-74
2022/10/21 02:35:19;;;;;;;18.60;10.68;;;;;;;11.81;100.00;100628.97;5037342;28;20030;-74
2022/10/21 02:38:19;;;;;;;15.82;8.90;;;;;;;11.78;100.00;100630.88;5013664;28;20061;-74
2022/10/21 02:40:51;;;;;;;20.45;10.73;;;;;;;11.75;100.00;100634.50;5037439;28;20060;-74
2022/10/21 02:43:34;;;;;;;18.15;10.30;;;;;;;11.74;100.00;100637.19;5032335;28;20125;-74
2022/10/21 02:46:05;;;;;;;16.75;10.02;;;;;;;11.71;100.00;100643.44;5033760;28;20119;-74
2022/10/21 02:48:34;;;;;;;;;;;;;;;11.77;100.00;100635.31;5049160;28;20029;-73
2022/10/21 02:51:03;;;;;;;19.10;10.18;;;;;;;11.74;100.00;100637.19;5033672;28;20441;-74
2022/10/21 02:53:28;;;;;;;14.70;10.43;;;;;;;11.75;100.00;100646.91;5048549;28;20473;-74
2022/10/21 02:55:54;;;;;;;15.65;10.27;;;;;;;11.76;100.00;100632.69;5048755;28;20048;-74
2022/10/21 02:58:19;;;;;;;20.70;11.32;;;;;;;11.72;100.00;100626.63;5031953;28;20405;-73
2022/10/21 03:00:45;;;;;;;21.60;11.60;;;;;;;11.73;100.00;100636.31;5032098;28;20357;-74
2022/10/21 03:03:10;;;;;;;20.70;10.55;;;;;;;11.70;100.00;100619.63;5031750;28;20450;-73
2022/10/21 03:05:36;;;;;;;21.60;10.65;;;;;;;11.69;100.00;100617.88;5047924;28;20442;-74
2022/10/21 03:08:01;;;;;;;17.30;9.32;;;;;;;11.64;100.00;100612.72;5034543;28;20040;-74
2022/10/21 03:10:27;;;;;;;16.08;10.18;;;;;;;11.63;100.00;100609.19;5037270;28;20030;-74
2022/10/21 03:12:52;;;;;;;13.82;10.25;;;;;;;11.63;100.00;100610.97;5031892;28;20354;-74
2022/10/21 03:15:18;;;;;;;22.38;10.52;;;;;;;11.64;100.00;100615.34;5043193;28;20040;-74
2022/10/21 03:17:43;;;;;;;13.95;9.48;;;;;;;11.62;100.00;100610.13;5048484;28;20044;-73
2022/10/21 03:20:12;;;;;;;12.60;9.27;;;;;;;11.59;100.00;100617.28;5031334;28;20116;-74
2022/10/21 03:22:37;;;;;;;16.13;10.63;;;;;;;11.58;100.00;100610.25;5031746;28;20120;-74
2022/10/21 03:25:04;;;;;;;13.25;9.13;;;;;;;11.55;100.00;100615.66;5032890;28;20120;-74
2022/10/21 03:27:29;;;;;;;25.30;11.15;;;;;;;11.58;100.00;100616.41;5040923;28;20046;-74
2022/10/21 03:29:55;;;;;;;21.50;9.93;;;;;;;11.56;100.00;100620.91;5031925;28;20048;-74
2022/10/21 03:32:20;;;;;;;14.20;9.63;;;;;;;11.54;100.00;100630.66;5032757;28;20124;-74
2022/10/21 03:34:45;;;;;;;20.33;10.10;;;;;;;11.53;100.00;100615.69;5031249;28;20029;-74
2022/10/21 03:37:11;;;;;;;21.30;11.25;;;;;;;11.53;100.00;100621.00;5047661;28;20041;-74
2022/10/21 03:39:36;;;;;;;15.65;8.60;;;;;;;11.50;100.00;100625.50;5018671;28;20022;-74
2022/10/21 03:42:02;;;;;;;13.52;10.15;;;;;;;11.52;100.00;100621.03;5048057;28;20108;-74
2022/10/21 03:44:28;;;;;;;17.15;10.45;;;;;;;11.50;100.00;100623.75;5047758;28;20373;-74
2022/10/21 03:46:53;;;;;;;18.30;10.68;;;;;;;11.50;100.00;100613.13;5032557;28;20040;-74
2022/10/21 03:49:19;;;;;;;16.48;10.63;;;;;;;11.49;100.00;100611.38;5032224;28;20048;-74
2022/10/21 03:51:44;;;;;;;16.15;10.20;;;;;;;11.47;100.00;100599.94;5030923;28;20451;-74
2022/10/21 03:54:10;;;;;;;17.73;10.70;;;;;;;11.47;100.00;100601.72;5030948;28;20111;-74
2022/10/21 03:56:35;;;;;;;14.80;9.32;;;;;;;11.46;100.00;100607.97;5047624;28;20113;-74
2022/10/21 03:59:00;;;;;;;16.67;9.00;;;;;;;11.44;100.00;100613.28;5047441;28;20385;-74
2022/10/21 04:01:26;;;;;;;13.55;9.30;;;;;;;11.44;100.00;100604.47;5031143;28;20041;-74
2022/10/21 04:03:52;;;;;;;17.17;9.82;;;;;;;11.43;100.00;100603.63;5030617;28;20087;-74
2022/10/21 04:06:18;;;;;;;23.50;10.20;;;;;;;11.46;100.00;100598.22;5029505;28;20049;-74
2022/10/21 04:08:43;;;;;;;17.02;9.20;;;;;;;11.40;100.00;100609.88;5032904;28;20028;-74
2022/10/21 04:11:08;;;;;;;13.70;9.23;;;;;;;11.40;100.00;100601.94;5032748;28;20493;-74
2022/10/21 04:13:34;;;;;;;14.20;9.02;;;;;;;11.40;100.00;100611.66;5031168;28;20025;-74
2022/10/21 04:16:01;;;;;;;17.02;9.55;;;;;;;11.39;100.00;100615.22;5030645;28;20053;-74
2022/10/21 04:18:27;;;;;;;18.58;8.70;;;;;;;11.36;100.00;100610.00;5031390;28;20017;-74
2022/10/21 04:20:53;;;;;;;15.65;8.63;;;;;;;11.33;100.00;100616.28;5031185;28;20061;-74
2022/10/21 04:23:18;;;;;;;14.75;8.40;;;;;;;11.34;100.00;100619.78;5028699;28;20060;-74
2022/10/21 04:25:44;;;;;;;13.32;8.55;;;;;;;11.34;100.00;100622.44;5029596;28;20072;-74
2022/10/21 04:28:10;;;;;;;13.00;8.10;;;;;;;11.31;100.00;100617.22;5027742;28;20132;-74
2022/10/21 04:30:35;;;;;;;19.50;8.43;;;;;;;11.31;100.00;100612.78;5029597;28;20404;-74
2022/10/21 04:33:01;;;;;;;15.80;8.68;;;;;;;11.30;100.00;100619.00;5031122;28;20041;-74
2022/10/21 04:35:26;;;;;;;11.13;7.47;;;;;;;11.28;100.00;100612.88;5029416;28;20124;-74
2022/10/21 04:37:52;;;;;;;11.65;8.50;;;;;;;11.26;100.00;100611.19;5043163;28;20025;-74
2022/10/21 04:40:17;;;;;;;12.13;7.35;;;;;;;11.28;100.00;100607.56;5043940;28;20108;-74
2022/10/21 04:42:47;;;;;;;13.45;7.32;;;;;;;11.26;100.00;100613.84;5013046;28;20057;-74
2022/10/21 04:45:13;;;;;;;12.60;7.18;;;;;;;11.22;100.00;100615.69;5030360;28;20091;-74
2022/10/21 04:47:41;;;;;;;12.73;7.47;;;;;;;11.23;100.00;100622.75;5045516;28;20029;-74
2022/10/21 04:50:07;;;;;;;13.23;7.50;;;;;;;11.24;100.00;100616.53;5030788;28;20042;-74
2022/10/21 04:52:33;;;;;;;14.82;7.45;;;;;;;11.26;100.00;100619.13;5030965;28;20096;-73
2022/10/21 04:55:02;;;;;;;15.38;7.53;;;;;;;11.25;100.00;100623.56;5030536;28;20112;-74
2022/10/21 04:57:27;;;;;;;15.32;8.32;;;;;;;11.26;100.00;100621.78;5031035;28;20113;-74
2022/10/21 04:59:53;;;;;;;16.83;7.95;;;;;;;11.26;100.00;100612.03;5012777;28;20041;-74
2022/10/21 05:02:18;;;;;;;14.45;7.65;;;;;;;11.26;100.00;100616.50;5030968;28;20121;-74
2022/10/21 05:04:44;;;;;;;11.57;7.53;;;;;;;11.26;100.00;100619.13;5030512;28;20479;-74
2022/10/21 05:07:09;;;;;;;11.63;7.10;;;;;;;11.27;100.00;100616.44;5028281;28;20055;-75
2022/10/21 05:09:35;;;;;;;13.68;7.80;;;;;;;11.28;100.00;100615.53;5030712;28;20112;-74
2022/10/21 05:12:00;;;;;;;9.85;7.47;;;;;;;11.29;100.00;100622.56;5014420;28;20091;-75
2022/10/21 05:14:25;;;;;;;22.65;8.10;;;;;;;11.27;100.00;100615.56;5032514;28;20017;-74
2022/10/21 05:16:51;;;;;;;12.88;7.10;;;;;;;11.24;100.00;100613.88;5030561;28;20033;-74
2022/10/21 05:19:17;;;;;;;15.38;6.97;;;;;;;11.25;100.00;100626.22;5030491;28;20091;-74
2022/10/21 05:21:42;;;;;;;11.70;7.65;;;;;;;11.26;100.00;100622.66;5043194;28;20025;-77
2022/10/21 05:24:08;;;;;;;12.27;6.93;;;;;;;11.26;100.00;100629.75;5025137;28;20045;-77
2022/10/21 05:26:33;;;;;;;17.38;6.97;;;;;;;11.23;100.00;100622.75;5029774;28;20042;-77
2022/10/21 05:28:59;;;;;;;16.45;7.10;;;;;;;11.19;100.00;100613.13;5029052;28;20041;-77
2022/10/21 05:31:25;;;;;;;10.88;6.43;;;;;;;11.21;100.00;100608.66;5012994;28;20404;-77
2022/10/21 05:33:50;;;;;;;10.00;6.32;;;;;;;11.18;100.00;100600.81;5028817;28;20064;-77
2022/10/21 05:36:16;;;;;;;8.98;6.15;;;;;;;11.16;100.00;100589.38;5009857;28;20059;-77
2022/10/21 05:38:41;;;;;;;15.82;7.20;;;;;;;11.14;100.00;100596.50;5028462;28;20040;-77
2022/10/21 05:41:09;;;;;;;14.23;6.82;;;;;;;11.10;100.00;100587.78;5030096;28;20183;-77
2022/10/21 05:43:36;;;;;;;21.23;6.93;;;;;;;11.06;100.00;100586.09;5027618;28;20693;-77
2022/10/21 05:46:02;;;;;;;12.15;6.22;;;;;;;11.03;100.00;100583.56;5028649;28;20075;-77
2022/10/21 05:48:27;;;;;;;13.60;7.10;;;;;;;11.00;100.00;100578.31;5028897;28;20120;-77
2022/10/21 05:50:54;;;;;;;17.23;7.63;;;;;;;10.96;100.00;100571.38;5030128;28;20118;-77
2022/10/21 05:53:22;;;;;;;10.25;7.55;;;;;;;10.93;100.00;100576.78;5031309;28;20037;-77
2022/10/21 05:56:14;;;;;;;11.85;6.88;;;;;;;10.93;100.00;100577.63;5032737;28;20132;-77
2022/10/21 05:58:39;;;;;;;13.85;7.05;;;;;;;10.88;100.00;100574.25;5013452;28;20126;-77
2022/10/21 06:01:05;;;;;;;13.40;6.72;;;;;;;10.88;100.00;100576.91;5034119;28;20091;-77
2022/10/21 06:03:32;;;;;;;13.85;7.32;;;;;;;10.85;100.00;100566.34;5032810;28;20064;-77
2022/10/21 06:06:03;;;;;;;12.82;6.28;;;;;;;10.84;100.00;100574.38;5032620;28;20453;-77
2022/10/21 06:08:30;;;;;;;18.23;6.25;;;;;;;10.86;100.00;100576.06;5030046;28;20123;-77
2022/10/21 06:11:08;;;;;;;13.05;7.40;;;;;;;10.87;100.00;100572.50;5032364;28;20063;-77
2022/10/21 06:13:33;;;;;;;11.43;6.53;;;;;;;10.87;100.00;100575.13;5033750;28;20033;-77
2022/10/21 06:15:59;;;;;;;11.45;6.80;;;;;;;10.88;100.00;100568.94;5044056;28;20022;-77
2022/10/21 06:18:26;;;;;;;9.50;6.60;;;;;;;10.88;100.00;100562.75;5032415;28;20037;-77
2022/10/21 06:20:51;;;;;;;11.00;6.03;;;;;;;10.87;100.00;100566.34;5048777;28;20055;-74
2022/10/21 06:23:17;;;;;;;13.05;6.70;;;;;;;10.89;100.00;100569.81;5033969;28;20041;-74
2022/10/21 06:25:44;;;;;;;13.10;6.30;;;;;;;10.87;100.00;100577.78;5033912;28;20100;-75
2022/10/21 06:28:10;;;;;;;11.10;6.88;;;;;;;10.89;100.00;100575.09;5038431;28;20041;-75
2022/10/21 06:30:36;;;;;;;11.77;6.45;;;;;;;10.89;100.00;100570.66;5031867;28;20466;-74
2022/10/21 06:33:01;;;;;;;15.23;7.32;;;;;;;10.90;100.00;100568.88;5047422;28;20106;-74
2022/10/21 06:35:26;;;;;;;12.75;6.75;;;;;;;10.87;100.00;100574.28;5033201;28;20029;-74
2022/10/21 06:37:52;;;;;;;13.02;6.70;;;;;;;10.89;100.00;100572.47;5012223;28;20056;-74
2022/10/21 06:40:17;;;;;;;15.38;6.95;;;;;;;10.90;100.00;100571.53;5029142;28;20030;-74
2022/10/21 06:42:43;;;;;;;13.55;6.30;;;;;;;10.90;100.00;100576.84;5048287;28;20465;-74
2022/10/21 06:45:11;;;;;;;16.00;6.82;;;;;;;10.91;100.00;100582.09;5013571;28;20043;-74
2022/10/21 06:47:37;;;;;;;22.92;7.13;;;;;;;10.93;100.00;100576.78;5015495;28;20029;-75
2022/10/21 06:50:03;;;;;;;12.32;6.55;;;;;;;10.95;100.00;100582.88;5032931;28;20037;-74
2022/10/21 06:52:30;;;;;;;17.80;7.00;;;;;;;10.97;100.00;100602.25;5031606;28;20045;-75
2022/10/21 06:54:55;;;;;;;10.50;6.15;;;;;;;11.00;100.00;100603.94;5033048;28;20025;-74
2022/10/21 06:57:21;;;;;;;19.25;6.68;;;;;;;11.02;100.00;100608.28;5048328;28;20043;-74
2022/10/21 06:59:47;;;;;;;20.27;7.32;;;;;;;11.03;100.00;100619.75;5033002;28;20025;-74
2022/10/21 07:02:12;;;;;;;15.23;6.53;;;;;;;11.07;100.00;100627.59;5048819;28;20045;-74
2022/10/21 07:04:38;;;;;;;13.10;7.10;;;;;;;11.10;100.00;100627.53;5031278;28;20031;-75
2022/10/21 07:07:04;;;;;;;11.02;6.60;;;;;;;11.14;100.00;100629.16;5031205;28;20034;-74
2022/10/21 07:09:29;;;;;;;13.23;6.45;;;;;;;11.21;100.00;100629.88;5035918;28;20080;-74
2022/10/21 07:11:55;;;;;;;18.38;6.63;;;;;;;11.26;100.00;100629.75;5019116;28;20129;-74
2022/10/21 07:14:21;;;;;;;14.48;5.95;;;;;;;11.30;100.00;100637.56;5020958;28;20024;-74
2022/10/21 07:16:47;;;;;;;10.05;6.05;;;;;;;11.34;100.00;100644.50;5033204;28;20034;-74
2022/10/21 07:19:13;;;;;;;12.50;5.93;;;;;;;11.37;100.00;100649.75;5031420;28;20064;-74
2022/10/21 07:21:38;;;;;;;12.57;5.63;;;;;;;11.41;100.00;100640.78;5030983;28;20053;-74
2022/10/21 07:24:04;;;;;;;11.10;5.88;;;;;;;11.47;100.00;100645.03;5031574;28;20511;-74
2022/10/21 07:26:32;;;;;;;15.85;5.85;;;;;;;11.51;100.00;100649.34;5033827;28;20128;-75
2022/10/21 07:28:59;;;;;;;10.80;5.65;;;;;;;11.55;100.00;100648.34;5030171;28;20049;-74
2022/10/21 07:31:25;;;;;;;13.35;5.80;;;;;;;11.60;100.00;100649.06;5032034;28;20413;-74
2022/10/21 07:33:51;;;;;;;13.90;6.05;;;;;;;11.63;100.00;100651.63;5030471;28;20040;-74
2022/10/21 07:36:25;;;;;;;11.98;5.50;;;;;;;11.68;100.00;100656.81;5032147;28;20029;-75
2022/10/21 07:38:52;;;;;;;9.98;5.35;;;;;;;11.75;100.00;100655.72;5030541;28;20418;-74
2022/10/21 07:41:24;;;;;;;12.35;6.03;;;;;;;11.79;100.00;100657.38;5031899;28;20026;-75
2022/10/21 07:43:50;;;;;;;7.55;5.05;;;;;;;11.86;100.00;100658.03;5031762;28;20037;-74
2022/10/21 07:46:17;;;;;;;8.88;5.32;;;;;;;11.90;100.00;100648.25;5030377;28;20315;-74
2022/10/21 07:48:43;;;;;;;9.95;5.50;;;;;;;11.94;100.00;100653.41;5030179;28;20037;-75
2022/10/21 07:51:12;;;;;;;16.95;5.28;;;;;;;12.01;100.00;100659.38;5030670;28;20034;-74
2022/10/21 07:53:38;;;;;;;10.63;5.38;;;;;;;12.06;100.00;100654.81;5030328;28;20044;-74
2022/10/21 07:56:14;;;;;;;11.50;5.50;;;;;;;12.10;100.00;100656.47;5031913;28;20104;-77
2022/10/21 07:58:40;;;;;;;13.25;5.40;;;;;;;12.14;100.00;100662.53;5031986;28;20434;-78
2022/10/21 08:01:07;;;;;;;15.82;5.80;;;;;;;12.17;100.00;100659.78;5032028;28;20639;-77
2022/10/21 08:03:32;;;;;;;11.82;5.50;;;;;;;12.19;100.00;100660.59;5029631;28;20051;-77
2022/10/21 08:05:58;;;;;;;16.48;5.60;;;;;;;12.25;100.00;100665.72;5029990;28;20052;-79
2022/10/21 08:08:24;;;;;;;11.48;5.60;;;;;;;12.28;100.00;100657.66;5046614;28;20469;-79
2022/10/21 08:10:52;;;;;;;9.15;5.35;;;;;;;12.31;100.00;100665.50;5035929;28;20041;-79
2022/10/21 08:13:18;;;;;;;11.82;5.43;;;;;;;12.36;100.00;100674.19;5044957;28;20465;-79
2022/10/21 08:15:45;;;;;;;13.57;6.20;;;;;;;12.39;100.00;100660.84;5029218;28;20036;-79
2022/10/21 08:18:11;;;;;;;13.38;6.00;;;;;;;12.41;100.00;100655.47;5046264;28;20050;-79
2022/10/21 08:20:42;;;;;;;10.45;5.15;;;;;;;12.42;100.00;100660.75;5029138;28;20034;-79
2022/10/21 08:23:08;;;;;;;12.32;6.00;;;;;;;12.45;100.00;100657.13;5028606;28;20045;-79
2022/10/21 08:25:34;;;;;;;11.40;5.78;;;;;;;12.50;100.00;100654.31;5029870;28;20028;-79
2022/10/21 08:28:00;;;;;;;11.23;6.10;;;;;;;12.51;100.00;100648.94;5030447;28;20104;-79
2022/10/21 08:30:28;;;;;;;10.35;5.88;;;;;;;12.50;100.00;100633.06;5028621;28;20124;-79
2022/10/21 08:32:55;;;;;;;16.00;6.13;;;;;;;12.54;100.00;100643.53;5031251;28;20135;-79
2022/10/21 08:35:20;;;;;;;18.38;5.60;;;;;;;12.55;100.00;100647.06;5008970;28;20065;-79
2022/10/21 08:37:47;;;;;;;8.10;5.25;;;;;;;12.56;100.00;100654.09;5030022;28;20470;-79
2022/10/21 08:40:13;;;;;;;19.35;6.03;;;;;;;12.56;100.00;100647.03;5016569;28;20046;-79
2022/10/21 08:42:41;;;;;;;18.05;6.00;;;;;;;12.60;100.00;100658.41;5030236;28;20049;-79
2022/10/21 08:45:17;;;;;;;12.05;5.45;;;;;;;12.60;100.00;100659.25;5031485;28;20026;-79
2022/10/21 08:47:49;;;;;;;8.73;5.25;;;;;;;12.58;100.00;100658.44;5029055;28;20453;-79
2022/10/21 08:50:19;;;;;;;12.63;6.13;;;;;;;12.62;100.00;100665.41;5031310;28;20047;-79
2022/10/21 08:52:59;;;;;;;12.57;6.53;;;;;;;12.62;100.00;100670.72;5031673;28;20473;-80
2022/10/21 08:55:41;;;;;;;14.40;6.88;;;;;;;12.67;100.00;100679.41;5031355;28;20385;-80
2022/10/21 08:58:21;;;;;;;12.13;6.53;;;;;;;12.69;100.00;100687.34;5031256;28;20021;-79
2022/10/21 09:00:53;;;;;;;10.10;6.30;;;;;;;12.73;100.00;100680.13;5030534;28;20071;-80
2022/10/21 09:03:28;;;;;;;13.20;5.72;;;;;;;12.75;100.00;100665.00;5031163;28;20034;-79
2022/10/21 09:06:18;;;;;;;12.07;5.72;;;;;;;12.82;100.00;100669.19;5031263;28;20034;-80
2022/10/21 09:09:19;;;;;;;11.13;6.18;;;;;;;12.90;100.00;100680.41;5030025;28;20048;-79
2022/10/21 09:11:56;;;;;;;13.77;5.75;;;;;;;12.97;100.00;100683.75;5021534;28;20064;-80
2022/10/21 09:14:55;;;;;;;11.30;5.65;;;;;;;13.06;100.00;100689.59;5038588;28;20041;-79
2022/10/21 09:17:45;;;;;;;14.05;5.63;;;;;;;13.13;100.00;100679.63;5030442;28;20040;-79
2022/10/21 09:20:45;;;;;;;12.57;4.95;;;;;;;13.26;100.00;100674.75;5031179;28;20116;-80
2022/10/21 09:23:35;;;;;;;8.07;4.20;;;;;;;13.37;100.00;100687.69;5031456;28;20125;-79
2022/10/21 09:26:10;;;;;;;7.90;4.10;;;;;;;13.44;100.00;100682.09;5024838;28;20041;-79
2022/10/21 09:28:36;;;;;;;8.73;4.00;;;;;;;13.53;100.00;100684.44;5053300;28;20041;-79
2022/10/21 09:31:12;;;;;;;12.73;4.03;;;;;;;13.60;100.00;100674.44;5035338;28;20052;-79
2022/10/21 09:33:37;;;;;;;9.65;3.67;;;;;;;13.67;100.00;100672.38;5050397;28;20037;-79
2022/10/21 09:36:06;;;;;;;9.50;3.40;;;;;;;13.70;100.00;100673.16;5033457;28;20046;-78
2022/10/21 09:38:38;;;;;;;8.95;3.40;;;;;;;13.74;100.00;100669.44;5027598;28;20454;-78
2022/10/21 09:41:06;;;;;;;6.05;3.15;;;;;;;13.79;100.00;100665.75;5028152;28;20519;-78
2022/10/21 09:43:31;;;;;;;12.20;3.40;;;;;;;13.82;100.00;100654.97;5035124;28;20021;-78
2022/10/21 09:45:57;;;;;;;12.05;3.53;;;;;;;13.85;100.00;100641.56;5034959;28;20041;-78
2022/10/21 09:48:42;;;;;;;9.60;2.97;;;;;;;13.90;100.00;100648.44;5031799;28;20053;-79
2022/10/21 09:51:18;;;;;;;7.00;2.67;;;;;;;13.96;100.00;100650.84;5033542;28;20072;-82
2022/10/21 09:53:48;;;;;;;11.30;2.88;;;;;;;14.03;100.00;100645.31;5047966;28;20049;-79
2022/10/21 09:56:22;;;;;;;15.00;2.97;;;;;;;14.09;100.00;100648.56;5033377;28;20434;-80
2022/10/21 09:59:02;;;;;;;6.93;2.58;;;;;;;14.17;100.00;100646.50;5030574;28;20083;-79
2022/10/21 10:01:28;;;;;;;7.20;2.72;;;;;;;14.26;100.00;100650.56;5032617;28;20095;-79
2022/10/21 10:03:54;;;;;;;5.65;2.40;;;;;;;14.35;100.00;100647.53;5033104;28;20060;-79
2022/10/21 10:06:38;;;;;;;12.10;3.28;;;;;;;14.46;100.00;100659.56;5032129;28;20073;-80
2022/10/21 10:09:21;;;;;;;4.97;2.50;;;;;;;14.57;100.00;100657.38;5032048;28;20126;-79
2022/10/21 10:12:00;;;;;;;19.70;3.65;;;;;;;14.65;100.00;100667.69;5028608;28;20045;-79
2022/10/21 10:14:32;;;;;;;8.25;2.58;;;;;;;14.70;100.00;100666.56;5031777;28;20512;-80
2022/10/21 10:17:17;;;;;;;5.93;2.58;;;;;;;14.78;100.00;100676.91;5033636;28;20037;-79
2022/10/21 10:19:42;;;;;;;7.78;2.53;;;;;;;14.81;100.00;100672.34;5031601;28;20048;-80
2022/10/21 10:22:15;;;;;;;4.72;2.58;;;;;;;14.88;100.00;100683.59;5028421;28;20339;-79
2022/10/21 10:24:42;;;;;;;11.85;2.75;;;;;;;14.95;100.00;100692.19;5034594;28;20033;-79
2022/10/21 10:27:22;;;;;;;5.35;2.53;;;;;;;15.01;100.00;100687.47;5034676;28;20057;-79
2022/10/21 10:29:56;;;;;;;10.20;2.67;;;;;;;15.11;100.00;100687.06;5034907;28;20065;-79
2022/10/21 10:32:24;;;;;;;9.70;2.40;;;;;;;15.19;100.00;100688.47;5034921;28;20109;-79
2022/10/21 10:34:54;;;;;;;9.45;3.00;;;;;;;15.31;100.00;100694.22;5033445;28;20049;-79
2022/10/21 10:37:26;;;;;;;6.20;2.40;;;;;;;15.39;100.00;100698.28;5034452;28;20036;-79
2022/10/21 10:39:55;;;;;;;8.68;3.97;;;;;;;15.49;100.00;100683.59;5033771;28;20037;-79
2022/10/21 10:42:25;;;;;;;6.55;3.35;;;;;;;15.56;100.00;100700.22;5034437;28;20033;-79
2022/10/21 10:44:54;;;;;;;15.90;3.47;;;;;;;15.61;100.00;100698.19;5033302;28;20515;-80
2022/10/21 10:47:30;;;;;;;10.85;3.28;;;;;;;15.73;100.00;100690.63;5049646;28;20373;-80
2022/10/21 10:49:56;;;;;;;7.05;2.97;;;;;;;15.76;100.00;100695.81;5031586;28;20063;-76
2022/10/21 10:52:23;;;;;;;9.55;3.22;;;;;;;15.84;100.00;100696.31;5034257;28;20450;-76
2022/10/21 10:55:25;;;;;;;11.82;3.50;;;;;;;15.92;100.00;100694.13;5034040;28;20049;-76
2022/10/21 10:57:53;;;;;;;17.65;3.92;;;;;;;15.96;100.00;100698.41;4987791;28;20430;-76
2022/10/21 11:00:21;;;;;;;9.70;3.17;;;;;;;16.02;100.00;100694.59;5024790;28;20092;-76
2022/10/21 11:02:54;;;;;;;7.93;3.33;;;;;;;16.09;100.00;100694.22;5032996;28;20040;-76
2022/10/21 11:05:35;;;;;;;16.77;3.90;;;;;;;16.20;100.00;100685.72;5033669;28;20138;-76
2022/10/21 11:08:27;;;;;;;11.13;3.63;;;;;;;16.32;100.00;100679.78;5033170;28;20029;-75
2022/10/21 11:10:59;;;;;;;11.32;3.60;;;;;;;16.39;100.00;100682.16;5023380;28;20042;-76
2022/10/21 11:13:27;;;;;;;13.85;3.60;;;;;;;16.42;99.81;100672.19;5033926;28;20071;-76
2022/10/21 11:16:14;;;;;;;10.45;3.30;;;;;;;16.50;100.00;100674.47;5032164;28;20038;-76
2022/10/21 11:18:49;;;;;;;8.13;3.33;;;;;;;16.65;100.00;100676.38;5032260;28;20130;-76
2022/10/21 11:21:32;;;;;;;8.20;3.40;;;;;;;16.72;97.39;100676.97;5032242;28;20033;-76